weather.gov     
National Weather Service

Terminal Aerodrome Forecast
NWS Homepage
This page is being discontinued on March 12, 2014.
The same data is available at this site. Please update your bookmarks.
Thank you, and we apologize for the inconvenience.
Please send an email to SR-SRH.Webmaster@noaa.gov with any concerns.


Current Version
Previous Version:    01  02  03  04  05  06  07  08  09  10  11  12  13  14  15  16  17  18  19  20  21  22  23  24  25  26  27  28  29  30  
   31  32  33  34  35  36  37  
[Printable]
316
FTUS46 KHNX 312323
TAFVIS
TAF
KVIS 312323Z 0100/0124 VRB04KT 4SM HZ SKC
     FM010600 00000KT 2SM BR SCT005
     FM010900 00000KT 3/4SM BR OVC003
     FM011200 00000KT 1/4SM FG VV001
     FM011700 VRB03KT 1SM BR BKN006
     FM011900 VRB03KT 2SM HZ SCT006
     FM012100 VRB03KT 4SM HZ SKC=


316
FTUS46 KHNX 312323
TAFVIS
TAF
KVIS 312323Z 0100/0124 VRB04KT 4SM HZ SKC
     FM010600 00000KT 2SM BR SCT005
     FM010900 00000KT 3/4SM BR OVC003
     FM011200 00000KT 1/4SM FG VV001
     FM011700 VRB03KT 1SM BR BKN006
     FM011900 VRB03KT 2SM HZ SCT006
     FM012100 VRB03KT 4SM HZ SKC=




U.S. Dept. of Commerce
NOAA National Weather Service
1325 East West Highway
Silver Spring, MD 20910
E-mail: w-nws.webmaster@noaa.gov
Page last modified: May 16, 2007
NATIONAL WEATHER SERVICE: for Safety, for Work, for Fun - FOR LIFE